PWSweather.com
Personal Weather Stations
Station Observations
SEVANL01
SevillaES 41004

SevillaES 41004

Lat: 37.383633, Lon: -5.985787

Elevation: 19.685

Station Type: Davis Vantage Pro2

www.tiempoensevilla.es

High Low Average
Temperature 55.8°F13.2°C 42.5°F5.8°C 49.1°F9.5°C
Dew Point 45.2°F7.3°C 38.0°F3.3°C 41.5°F5.3°C
Winds 6.0 mph 9.7 kmh Calm Calm 3.0 mph ENE4.8 kmh ENE
Wind Gusts 11.0 mph17.7 kmh -- 5.0 mph8.0 kmh
Humidity 85% 58% 75%
Pressure 30.35 in1027.8 mb 30.21 in1023.0 mb -
Precipitation 0.00 in0.0 mm - -
Hour Temp Dew Point Humidity Winds Wind Gusts Pressure Precip Precip Rate Daily Precip Total
12:00 AM 52.2°F11.2°C 45.2°F7.3°C 77% 1.8 mph NW2.9 kmh NW 3.0 mph4.8 kmh 30.35 in1027.8 mb 0.00 in0.0 mm 0.00 in0.0 mm 0.00 in0.0 mm
12:20 AM 51.4°F10.8°C 44.8°F7.1°C 78% 1.0 mph NW1.6 kmh NW 3.0 mph4.8 kmh 30.35 in1027.8 mb 0.00 in0.0 mm 0.00 in0.0 mm 0.00 in0.0 mm
12:40 AM 50.8°F10.4°C 44.2°F6.8°C 78% 1.1 mph NW1.8 kmh NW 5.0 mph8.0 kmh 30.34 in1027.4 mb 0.00 in0.0 mm 0.00 in0.0 mm 0.00 in0.0 mm
01:00 AM 49.9°F9.9°C 43.6°F6.4°C 79% 1.8 mph NNE2.9 kmh NNE 4.0 mph6.4 kmh 30.35 in1027.8 mb 0.00 in0.0 mm 0.00 in0.0 mm 0.00 in0.0 mm
01:20 AM 49.1°F9.5°C 43.5°F6.4°C 81% 1.0 mph NNE1.6 kmh NNE 2.0 mph3.2 kmh 30.34 in1027.4 mb 0.00 in0.0 mm 0.00 in0.0 mm 0.00 in0.0 mm
01:40 AM 48.5°F9.2°C 43.3°F6.3°C 82% 1.8 mph NNE2.9 kmh NNE 4.0 mph6.4 kmh 30.34 in1027.4 mb 0.00 in0.0 mm 0.00 in0.0 mm 0.00 in0.0 mm
02:00 AM 47.6°F8.7°C 42.7°F5.9°C 83% 2.0 mph NNE3.2 kmh NNE 7.0 mph11.3 kmh 30.34 in1027.4 mb 0.00 in0.0 mm 0.00 in0.0 mm 0.00 in0.0 mm
02:20 AM 47.1°F8.4°C 42.5°F5.8°C 84% 3.0 mph NNE4.8 kmh NNE 5.0 mph8.0 kmh 30.33 in1027.1 mb 0.00 in0.0 mm 0.00 in0.0 mm 0.00 in0.0 mm
02:40 AM 46.7°F8.2°C 41.8°F5.4°C 83% 3.0 mph N4.8 kmh N 5.0 mph8.0 kmh 30.32 in1026.8 mb 0.00 in0.0 mm 0.00 in0.0 mm 0.00 in0.0 mm
03:00 AM 46.6°F8.1°C 41.7°F5.4°C 83% 2.7 mph NNE4.3 kmh NNE 4.0 mph6.4 kmh 30.32 in1026.8 mb 0.00 in0.0 mm 0.00 in0.0 mm 0.00 in0.0 mm
03:20 AM 46.4°F8.0°C 41.2°F5.1°C 82% 2.2 mph NE3.5 kmh NE 4.0 mph6.4 kmh 30.31 in1026.4 mb 0.00 in0.0 mm 0.00 in0.0 mm 0.00 in0.0 mm
03:40 AM 46.3°F7.9°C 41.4°F5.2°C 83% 2.5 mph NNE4.0 kmh NNE 5.0 mph8.0 kmh 30.31 in1026.4 mb 0.00 in0.0 mm 0.00 in0.0 mm 0.00 in0.0 mm
04:00 AM 46.2°F7.9°C 41.3°F5.2°C 83% 2.8 mph NE4.5 kmh NE 5.0 mph8.0 kmh 30.31 in1026.4 mb 0.00 in0.0 mm 0.00 in0.0 mm 0.00 in0.0 mm
04:20 AM 46.4°F8.0°C 41.5°F5.3°C 83% 1.0 mph NE1.6 kmh NE 2.0 mph3.2 kmh 30.31 in1026.4 mb 0.00 in0.0 mm 0.00 in0.0 mm 0.00 in0.0 mm
04:40 AM 46.1°F7.8°C 41.2°F5.1°C 83% 2.0 mph N3.2 kmh N 4.0 mph6.4 kmh 30.30 in1026.1 mb 0.00 in0.0 mm 0.00 in0.0 mm 0.00 in0.0 mm
05:00 AM 45.8°F7.7°C 40.9°F4.9°C 83% 3.2 mph NE5.1 kmh NE 9.0 mph14.5 kmh 30.31 in1026.4 mb 0.00 in0.0 mm 0.00 in0.0 mm 0.00 in0.0 mm
05:20 AM 45.2°F7.3°C 40.3°F4.6°C 83% 3.0 mph N4.8 kmh N 7.0 mph11.3 kmh 30.30 in1026.1 mb 0.00 in0.0 mm 0.00 in0.0 mm 0.00 in0.0 mm
05:40 AM 45.2°F7.3°C 40.3°F4.6°C 83% 1.8 mph N2.9 kmh N 4.0 mph6.4 kmh 30.30 in1026.1 mb 0.00 in0.0 mm 0.00 in0.0 mm 0.00 in0.0 mm
06:00 AM 45.0°F7.2°C 40.1°F4.5°C 83% 2.0 mph N3.2 kmh N 3.0 mph4.8 kmh 30.30 in1026.1 mb 0.00 in0.0 mm 0.00 in0.0 mm 0.00 in0.0 mm
06:20 AM 44.6°F7.0°C 39.8°F4.3°C 83% 1.2 mph N1.9 kmh N 3.0 mph4.8 kmh 30.29 in1025.7 mb 0.00 in0.0 mm 0.00 in0.0 mm 0.00 in0.0 mm
06:40 AM 44.0°F6.7°C 39.5°F4.2°C 84% 2.2 mph ENE3.5 kmh ENE 5.0 mph8.0 kmh 30.29 in1025.7 mb 0.00 in0.0 mm 0.00 in0.0 mm 0.00 in0.0 mm
07:00 AM 43.5°F6.4°C 39.3°F4.1°C 85% 2.1 mph NE3.4 kmh NE 4.0 mph6.4 kmh 30.29 in1025.7 mb 0.00 in0.0 mm 0.00 in0.0 mm 0.00 in0.0 mm
07:20 AM 43.5°F6.4°C 39.3°F4.1°C 85% 1.0 mph ENE1.6 kmh ENE 4.0 mph6.4 kmh 30.30 in1026.1 mb 0.00 in0.0 mm 0.00 in0.0 mm 0.00 in0.0 mm
07:40 AM 43.3°F6.3°C 39.1°F3.9°C 85% 1.2 mph NE1.9 kmh NE 4.0 mph6.4 kmh 30.30 in1026.1 mb 0.00 in0.0 mm 0.00 in0.0 mm 0.00 in0.0 mm
08:00 AM 43.4°F6.3°C 38.9°F3.8°C 84% 2.0 mph NE3.2 kmh NE 5.0 mph8.0 kmh 30.31 in1026.4 mb 0.00 in0.0 mm 0.00 in0.0 mm 0.00 in0.0 mm
08:20 AM 43.0°F6.1°C 38.2°F3.4°C 83% 3.0 mph NE4.8 kmh NE 7.0 mph11.3 kmh 30.31 in1026.4 mb 0.00 in0.0 mm 0.00 in0.0 mm 0.00 in0.0 mm
08:40 AM 43.1°F6.2°C 38.3°F3.5°C 83% 3.0 mph NNE4.8 kmh NNE 5.0 mph8.0 kmh 30.31 in1026.4 mb 0.00 in0.0 mm 0.00 in0.0 mm 0.00 in0.0 mm
09:00 AM 43.1°F6.2°C 38.3°F3.5°C 83% 3.2 mph NE5.1 kmh NE 7.0 mph11.3 kmh 30.31 in1026.4 mb 0.00 in0.0 mm 0.00 in0.0 mm 0.00 in0.0 mm
09:20 AM 42.7°F5.9°C 38.2°F3.4°C 84% 5.1 mph NE8.2 kmh NE 8.0 mph12.9 kmh 30.32 in1026.8 mb 0.00 in0.0 mm 0.00 in0.0 mm 0.00 in0.0 mm
09:40 AM 42.5°F5.8°C 38.0°F3.3°C 84% 6.0 mph NE9.7 kmh NE 11.0 mph17.7 kmh 30.32 in1026.8 mb 0.00 in0.0 mm 0.00 in0.0 mm 0.00 in0.0 mm
10:00 AM 43.0°F6.1°C 38.5°F3.6°C 84% 4.5 mph NE7.2 kmh NE 9.0 mph14.5 kmh 30.32 in1026.8 mb 0.00 in0.0 mm 0.00 in0.0 mm 0.00 in0.0 mm
10:20 AM 43.4°F6.3°C 38.6°F3.7°C 83% 3.4 mph NE5.5 kmh NE 9.0 mph14.5 kmh 30.33 in1027.1 mb 0.00 in0.0 mm 0.00 in0.0 mm 0.00 in0.0 mm
10:40 AM 44.6°F7.0°C 39.4°F4.1°C 82% 3.7 mph ENE6.0 kmh ENE 9.0 mph14.5 kmh 30.34 in1027.4 mb 0.00 in0.0 mm 0.00 in0.0 mm 0.00 in0.0 mm
11:00 AM 45.2°F7.3°C 39.7°F4.3°C 81% 4.0 mph NE6.4 kmh NE 8.0 mph12.9 kmh 30.34 in1027.4 mb 0.00 in0.0 mm 0.00 in0.0 mm 0.00 in0.0 mm
11:20 AM 46.6°F8.1°C 40.1°F4.5°C 78% 4.0 mph NE6.4 kmh NE 10.0 mph16.1 kmh 30.34 in1027.4 mb 0.00 in0.0 mm 0.00 in0.0 mm 0.00 in0.0 mm
11:40 AM 47.3°F8.5°C 41.1°F5.1°C 79% 5.3 mph ENE8.5 kmh ENE 9.0 mph14.5 kmh 30.33 in1027.1 mb 0.00 in0.0 mm 0.00 in0.0 mm 0.00 in0.0 mm
12:00 PM 48.1°F8.9°C 41.6°F5.3°C 78% 5.5 mph NE8.9 kmh NE 8.0 mph12.9 kmh 30.34 in1027.4 mb 0.00 in0.0 mm 0.00 in0.0 mm 0.00 in0.0 mm
12:20 PM 48.4°F9.1°C 41.9°F5.5°C 78% 4.7 mph NNE7.6 kmh NNE 11.0 mph17.7 kmh 30.33 in1027.1 mb 0.00 in0.0 mm 0.00 in0.0 mm 0.00 in0.0 mm
12:40 PM 49.0°F9.4°C 42.1°F5.6°C 77% 5.1 mph ENE8.2 kmh ENE 9.0 mph14.5 kmh 30.32 in1026.8 mb 0.00 in0.0 mm 0.00 in0.0 mm 0.00 in0.0 mm
01:00 PM 49.8°F9.9°C 42.5°F5.8°C 76% 4.6 mph NE7.4 kmh NE 9.0 mph14.5 kmh 30.30 in1026.1 mb 0.00 in0.0 mm 0.00 in0.0 mm 0.00 in0.0 mm
01:20 PM 50.7°F10.4°C 43.1°F6.2°C 75% 5.2 mph NE8.4 kmh NE 10.0 mph16.1 kmh 30.29 in1025.7 mb 0.00 in0.0 mm 0.00 in0.0 mm 0.00 in0.0 mm
01:40 PM 51.9°F11.1°C 43.9°F6.6°C 74% 4.0 mph ENE6.4 kmh ENE 9.0 mph14.5 kmh 30.28 in1025.4 mb 0.00 in0.0 mm 0.00 in0.0 mm 0.00 in0.0 mm
02:00 PM 53.2°F11.8°C 44.4°F6.9°C 72% 4.5 mph NE7.2 kmh NE 9.0 mph14.5 kmh 30.27 in1025.1 mb 0.00 in0.0 mm 0.00 in0.0 mm 0.00 in0.0 mm
02:20 PM 54.2°F12.3°C 44.2°F6.8°C 69% 2.7 mph NE4.3 kmh NE 7.0 mph11.3 kmh 30.26 in1024.7 mb 0.00 in0.0 mm 0.00 in0.0 mm 0.00 in0.0 mm
02:40 PM 54.4°F12.4°C 43.7°F6.5°C 67% 4.0 mph NE6.4 kmh NE 8.0 mph12.9 kmh 30.25 in1024.4 mb 0.00 in0.0 mm 0.00 in0.0 mm 0.00 in0.0 mm
03:00 PM 55.1°F12.8°C 43.1°F6.2°C 64% 3.4 mph NNE5.5 kmh NNE 7.0 mph11.3 kmh 30.25 in1024.4 mb 0.00 in0.0 mm 0.00 in0.0 mm 0.00 in0.0 mm
03:20 PM 55.6°F13.1°C 42.8°F6.0°C 62% 3.5 mph NNE5.6 kmh NNE 8.0 mph12.9 kmh 30.24 in1024.0 mb 0.00 in0.0 mm 0.00 in0.0 mm 0.00 in0.0 mm
03:40 PM 55.7°F13.2°C 42.0°F5.6°C 60% 3.0 mph N4.8 kmh N 7.0 mph11.3 kmh 30.23 in1023.7 mb 0.00 in0.0 mm 0.00 in0.0 mm 0.00 in0.0 mm
04:00 PM 55.5°F13.1°C 41.8°F5.4°C 60% 3.0 mph NE4.8 kmh NE 6.0 mph9.7 kmh 30.23 in1023.7 mb 0.00 in0.0 mm 0.00 in0.0 mm 0.00 in0.0 mm
04:20 PM 55.5°F13.1°C 41.4°F5.2°C 59% 1.9 mph NNE3.1 kmh NNE 5.0 mph8.0 kmh 30.23 in1023.7 mb 0.00 in0.0 mm 0.00 in0.0 mm 0.00 in0.0 mm
04:40 PM 55.6°F13.1°C 41.9°F5.5°C 60% 2.5 mph E4.0 kmh E 6.0 mph9.7 kmh 30.23 in1023.7 mb 0.00 in0.0 mm 0.00 in0.0 mm 0.00 in0.0 mm
05:00 PM 55.8°F13.2°C 41.7°F5.4°C 59% 2.3 mph ENE3.7 kmh ENE 7.0 mph11.3 kmh 30.23 in1023.7 mb 0.00 in0.0 mm 0.00 in0.0 mm 0.00 in0.0 mm
05:20 PM 55.6°F13.1°C 41.9°F5.5°C 60% 2.6 mph ESE4.2 kmh ESE 7.0 mph11.3 kmh 30.22 in1023.4 mb 0.00 in0.0 mm 0.00 in0.0 mm 0.00 in0.0 mm
05:40 PM 55.6°F13.1°C 41.5°F5.3°C 59% 2.4 mph ESE3.9 kmh ESE 4.0 mph6.4 kmh 30.22 in1023.4 mb 0.00 in0.0 mm 0.00 in0.0 mm 0.00 in0.0 mm
06:00 PM 55.0°F12.8°C 41.4°F5.2°C 60% 2.1 mph E3.4 kmh E 4.0 mph6.4 kmh 30.22 in1023.4 mb 0.00 in0.0 mm 0.00 in0.0 mm 0.00 in0.0 mm
06:20 PM 54.7°F12.6°C 40.2°F4.6°C 58% 1.4 mph E2.3 kmh E 3.0 mph4.8 kmh 30.23 in1023.7 mb 0.00 in0.0 mm 0.00 in0.0 mm 0.00 in0.0 mm
06:40 PM 54.3°F12.4°C 40.7°F4.8°C 60% 1.0 mph E1.6 kmh E 3.0 mph4.8 kmh 30.22 in1023.4 mb 0.00 in0.0 mm 0.00 in0.0 mm 0.00 in0.0 mm
07:00 PM 53.8°F12.1°C 41.5°F5.3°C 63% 1.0 mph E1.6 kmh E 2.0 mph3.2 kmh 30.23 in1023.7 mb 0.00 in0.0 mm 0.00 in0.0 mm 0.00 in0.0 mm
07:20 PM 53.4°F11.9°C 41.5°F5.3°C 64% 0.4 mph E0.6 kmh E 2.0 mph3.2 kmh 30.23 in1023.7 mb 0.00 in0.0 mm 0.00 in0.0 mm 0.00 in0.0 mm
07:40 PM 53.1°F11.7°C 41.2°F5.1°C 64% 1.6 mph E2.6 kmh E 3.0 mph4.8 kmh 30.23 in1023.7 mb 0.00 in0.0 mm 0.00 in0.0 mm 0.00 in0.0 mm
08:00 PM 52.5°F11.4°C 41.5°F5.3°C 66% Calm Calm -- 30.23 in1023.7 mb 0.00 in0.0 mm 0.00 in0.0 mm 0.00 in0.0 mm
08:20 PM 51.8°F11.0°C 42.3°F5.7°C 70% Calm Calm -- 30.23 in1023.7 mb 0.00 in0.0 mm 0.00 in0.0 mm 0.00 in0.0 mm
08:40 PM 51.8°F11.0°C 42.7°F5.9°C 71% 0.3 mph E0.5 kmh E 1.0 mph1.6 kmh 30.23 in1023.7 mb 0.00 in0.0 mm 0.00 in0.0 mm 0.00 in0.0 mm
09:00 PM 51.8°F11.0°C 43.1°F6.2°C 72% 0.9 mph E1.4 kmh E 2.0 mph3.2 kmh 30.23 in1023.7 mb 0.00 in0.0 mm 0.00 in0.0 mm 0.00 in0.0 mm
09:20 PM 51.4°F10.8°C 41.9°F5.5°C 70% 0.2 mph E0.3 kmh E 2.0 mph3.2 kmh 30.22 in1023.4 mb 0.00 in0.0 mm 0.00 in0.0 mm 0.00 in0.0 mm
09:40 PM 51.1°F10.6°C 41.7°F5.4°C 70% 1.0 mph E1.6 kmh E 3.0 mph4.8 kmh 30.22 in1023.4 mb 0.00 in0.0 mm 0.00 in0.0 mm 0.00 in0.0 mm
10:00 PM 50.7°F10.4°C 42.7°F5.9°C 74% 1.4 mph NE2.3 kmh NE 3.0 mph4.8 kmh 30.22 in1023.4 mb 0.00 in0.0 mm 0.00 in0.0 mm 0.00 in0.0 mm
10:20 PM 49.2°F9.6°C 42.3°F5.7°C 77% 2.0 mph NNW3.2 kmh NNW 4.0 mph6.4 kmh 30.22 in1023.4 mb 0.00 in0.0 mm 0.00 in0.0 mm 0.00 in0.0 mm
10:40 PM 48.7°F9.3°C 42.5°F5.8°C 79% 2.5 mph NE4.0 kmh NE 4.0 mph6.4 kmh 30.21 in1023.0 mb 0.00 in0.0 mm 0.00 in0.0 mm 0.00 in0.0 mm
11:00 PM 48.5°F9.2°C 42.3°F5.7°C 79% 1.6 mph NE2.6 kmh NE 4.0 mph6.4 kmh 30.21 in1023.0 mb 0.00 in0.0 mm 0.00 in0.0 mm 0.00 in0.0 mm
11:20 PM 48.3°F9.1°C 42.1°F5.6°C 79% 1.5 mph NE2.4 kmh NE 4.0 mph6.4 kmh 30.21 in1023.0 mb 0.00 in0.0 mm 0.00 in0.0 mm 0.00 in0.0 mm
11:40 PM 48.1°F8.9°C 42.2°F5.7°C 80% 1.9 mph NNE3.1 kmh NNE 3.0 mph4.8 kmh 30.21 in1023.0 mb 0.00 in0.0 mm 0.00 in0.0 mm 0.00 in0.0 mm